Time;durP1;ratioP1;P1;durP2;ratioP2;P2;SDS_P1;SDS_P2;PMS_P1;PMS_P2;Temp;Humidity;BMP_temperature;BMP_pressure;BME280_temperature;BME280_humidity;BME280_pressure;Samples;Min_cycle;Max_cycle;Signal;HPM_P1;HPM_P2
2022/09/26 00:01:13;;;;;;;3.53;3.15;;;;;;;12.09;97.63;100082.00;4977159;28;20054;-63
2022/09/26 00:03:49;;;;;;;6.75;3.17;;;;;;;12.09;97.08;100079.38;4968331;28;20727;-62
2022/09/26 00:06:16;;;;;;;;;;;;;;;12.09;96.56;100074.09;4978510;28;20046;-62
2022/09/26 00:08:45;;;;;;;5.22;2.60;;;;;;;12.08;95.91;100072.41;4979217;28;19926;-62
2022/09/26 00:11:15;;;;;;;4.28;2.38;;;;;;;12.01;95.82;100077.28;4977200;28;20050;-62
2022/09/26 00:13:42;;;;;;;3.28;2.30;;;;;;;12.02;95.65;100076.34;4979920;28;20059;-61
2022/09/26 00:16:10;;;;;;;5.32;2.42;;;;;;;12.00;95.82;100074.78;4972613;28;20057;-62
2022/09/26 00:18:38;;;;;;;10.40;2.50;;;;;;;12.03;94.96;100064.84;4982079;28;20054;-63
2022/09/26 00:21:11;;;;;;;7.88;2.42;;;;;;;12.00;95.35;100074.78;4975709;28;20073;-62
2022/09/26 00:23:39;;;;;;;5.38;2.42;;;;;;;11.93;95.76;100078.81;4975834;28;20055;-63
2022/09/26 00:26:06;;;;;;;6.97;2.45;;;;;;;11.96;95.54;100068.03;4980579;28;20050;-64
2022/09/26 00:28:34;;;;;;;8.25;2.38;;;;;;;11.97;95.49;100065.28;4965737;28;20046;-64
2022/09/26 00:31:05;;;;;;;5.63;2.58;;;;;;;12.15;94.31;100056.00;4968772;28;20480;-62
2022/09/26 00:33:32;;;;;;;4.25;2.08;;;;;;;12.02;95.17;100064.94;4977765;28;20062;-64
2022/09/26 00:35:59;;;;;;;4.40;2.08;;;;;;;11.96;95.54;100063.59;4984256;28;20062;-63
2022/09/26 00:38:27;;;;;;;3.75;2.22;;;;;;;12.00;95.27;100062.44;4975900;28;20043;-63
2022/09/26 00:40:54;;;;;;;4.38;2.60;;;;;;;11.97;95.22;100060.00;4973648;28;20061;-62
2022/09/26 00:43:41;;;;;;;5.68;2.30;;;;;;;11.91;96.04;100056.03;4972071;28;20414;-62
2022/09/26 00:46:33;;;;;;;8.65;3.00;;;;;;;11.88;96.21;100056.25;4975617;28;20088;-64
2022/09/26 00:49:03;;;;;;;4.57;2.30;;;;;;;11.81;97.84;100057.63;4982200;28;20564;-63
2022/09/26 00:51:33;;;;;;;4.55;2.53;;;;;;;11.73;98.09;100056.50;4966751;28;20453;-64
2022/09/26 00:54:00;;;;;;;4.75;2.42;;;;;;;11.70;98.38;100057.56;4958221;28;20057;-63
2022/09/26 00:56:32;;;;;;;7.13;2.35;;;;;;;11.82;97.59;100058.47;4951970;28;20129;-63
2022/09/26 00:59:03;;;;;;;6.28;2.53;;;;;;;11.76;97.92;100057.13;4972402;28;20391;-64
2022/09/26 01:01:30;;;;;;;6.25;2.60;;;;;;;11.75;98.14;100049.31;4973878;28;20050;-65
2022/09/26 01:03:58;;;;;;;7.78;2.92;;;;;;;11.69;98.79;100049.78;4967351;28;20599;-63
2022/09/26 01:06:25;;;;;;;12.43;3.95;;;;;;;11.68;98.64;100041.03;4954776;28;20046;-62
2022/09/26 01:08:57;;;;;;;6.13;2.50;;;;;;;11.64;99.23;100037.75;4978083;28;20050;-62
2022/09/26 01:11:25;;;;;;;7.82;3.05;;;;;;;11.60;99.36;100028.38;4971743;28;20050;-64
2022/09/26 01:13:52;;;;;;;4.15;2.58;;;;;;;11.68;98.25;100041.03;4962477;28;20400;-62
2022/09/26 01:16:19;;;;;;;4.63;2.55;;;;;;;11.69;98.16;100040.06;4949694;28;20059;-64
2022/09/26 01:18:47;;;;;;;5.43;3.03;;;;;;;11.72;97.79;100031.09;4969762;28;20051;-62
2022/09/26 01:21:29;;;;;;;6.03;2.80;;;;;;;11.70;97.85;100031.19;4956453;28;20483;-62
2022/09/26 01:23:59;;;;;;;8.70;3.10;;;;;;;11.61;98.33;100030.06;4987033;28;20051;-63
2022/09/26 01:26:51;;;;;;;6.90;2.78;;;;;;;11.72;97.25;100028.47;4971465;28;20429;-63
2022/09/26 01:29:30;;;;;;;5.85;2.67;;;;;;;11.69;97.25;100026.88;4975630;28;20408;-62
2022/09/26 01:35:12;;;;;;;10.10;3.25;;;;;;;11.64;97.56;100019.31;4958164;28;20061;-65
2022/09/26 01:37:49;;;;;;;8.80;3.60;;;;;;;11.61;97.66;100013.41;4971176;28;20051;-62
2022/09/26 01:40:24;;;;;;;10.75;3.08;;;;;;;11.65;97.27;100013.06;4974201;28;20058;-63
2022/09/26 01:42:58;;;;;;;9.75;3.03;;;;;;;11.61;97.57;100014.25;4956257;28;20061;-64
2022/09/26 01:45:32;;;;;;;8.13;3.00;;;;;;;11.68;96.59;100012.00;4946505;28;20051;-62
2022/09/26 01:48:15;;;;;;;7.28;2.78;;;;;;;11.66;96.11;100014.78;4957185;28;20042;-65
2022/09/26 01:50:48;;;;;;;9.48;2.53;;;;;;;11.66;96.18;100006.88;4958524;28;20066;-62
2022/09/26 01:53:30;;;;;;;9.70;2.67;;;;;;;11.69;96.02;99999.66;4957350;28;20416;-63
2022/09/26 01:56:09;;;;;;;8.65;2.97;;;;;;;11.63;96.50;100001.81;4977204;28;20050;-61
2022/09/26 01:58:43;;;;;;;5.07;2.58;;;;;;;11.61;96.33;100001.06;4952745;28;20050;-62
2022/09/26 02:01:13;;;;;;;10.65;3.45;;;;;;;11.61;96.57;100010.78;4957004;28;20392;-62
2022/09/26 02:03:50;;;;;;;7.22;2.97;;;;;;;11.59;96.66;100002.16;4957846;28;20058;-62
2022/09/26 02:06:24;;;;;;;14.95;3.35;;;;;;;11.61;96.09;100000.22;4979248;28;20050;-62
2022/09/26 02:09:02;;;;;;;8.63;3.60;;;;;;;11.60;96.26;99996.75;4962323;28;20508;-62
2022/09/26 02:11:29;;;;;;;6.07;2.92;;;;;;;11.61;96.50;99990.50;4979075;28;20467;-63
2022/09/26 02:14:02;;;;;;;13.25;4.28;;;;;;;11.69;95.79;99984.69;4979181;28;20054;-63
2022/09/26 02:16:41;;;;;;;10.80;4.22;;;;;;;11.69;95.62;99983.84;4957179;28;20487;-63
2022/09/26 02:19:14;;;;;;;6.60;3.53;;;;;;;11.64;95.61;99978.91;4949145;28;20050;-63
2022/09/26 02:21:42;;;;;;;9.30;3.35;;;;;;;11.64;95.67;99977.13;4975991;28;20137;-64
2022/09/26 02:24:09;;;;;;;10.15;3.55;;;;;;;11.62;95.76;99973.78;4954988;28;20400;-63
2022/09/26 02:26:36;;;;;;;12.05;3.40;;;;;;;11.60;96.01;99978.28;4962448;28;20055;-65
2022/09/26 02:29:05;;;;;;;9.85;3.15;;;;;;;11.61;95.77;99974.69;4977854;28;20054;-63
2022/09/26 02:31:35;;;;;;;5.75;3.03;;;;;;;11.62;95.97;99972.94;4975781;28;20065;-63
2022/09/26 02:34:03;;;;;;;11.73;3.45;;;;;;;11.61;96.07;99974.69;4953689;28;20073;-63
2022/09/26 02:36:32;;;;;;;11.82;3.30;;;;;;;11.61;96.24;99968.59;4967851;28;20065;-61
2022/09/26 02:39:00;;;;;;;7.10;3.58;;;;;;;11.59;96.51;99970.50;4970969;28;20530;-62
2022/09/26 02:41:33;;;;;;;7.63;3.10;;;;;;;11.59;96.77;99958.16;4975292;28;22125;-64
2022/09/26 02:44:28;;;;;;;7.65;3.50;;;;;;;11.62;96.53;99957.13;4971396;28;20061;-62
2022/09/26 02:47:44;;;;;;;7.38;3.80;;;;;;;11.57;96.85;99953.94;4966938;28;20979;-63
2022/09/26 02:50:24;;;;;;;9.88;4.32;;;;;;;11.57;97.17;99949.53;4942568;28;21357;-64
2022/09/26 02:53:19;;;;;;;6.50;3.08;;;;;;;11.57;96.78;99949.53;4971305;28;20083;-62
2022/09/26 02:56:03;;;;;;;8.30;3.35;;;;;;;11.56;97.13;99942.56;4954308;28;20059;-62
2022/09/26 02:58:43;;;;;;;5.47;2.83;;;;;;;11.59;96.80;99942.34;4960591;28;20089;-63
2022/09/26 03:01:19;;;;;;;8.93;3.03;;;;;;;11.64;96.11;99939.38;4972086;28;20063;-65
2022/09/26 03:03:51;;;;;;;5.43;2.20;;;;;;;11.64;96.12;99942.84;4981198;23;20043;-65
2022/09/26 03:06:24;;;;;;;11.25;2.65;;;;;;;11.68;95.57;99945.25;5013960;28;20472;-65
2022/09/26 03:08:52;;;;;;;8.00;2.63;;;;;;;11.69;95.28;99939.88;5007415;28;20046;-65
2022/09/26 03:11:21;;;;;;;7.00;2.80;;;;;;;11.69;95.01;99939.88;5013221;28;20068;-65
2022/09/26 03:13:51;;;;;;;5.22;2.72;;;;;;;11.68;95.08;99943.47;5009689;28;20049;-65
2022/09/26 03:16:20;;;;;;;4.68;2.30;;;;;;;11.70;94.83;99936.25;5023677;28;20054;-66
2022/09/26 03:18:56;;;;;;;11.32;3.00;;;;;;;11.70;95.06;99936.25;5023621;28;20064;-65
2022/09/26 03:21:24;;;;;;;6.40;2.50;;;;;;;11.61;95.57;99924.59;5015089;28;20052;-66
2022/09/26 03:23:51;;;;;;;3.20;2.10;;;;;;;11.57;96.24;99933.72;5014030;28;20041;-67
2022/09/26 03:26:23;;;;;;;5.68;2.42;;;;;;;11.70;94.58;99935.44;4997949;28;20049;-67
2022/09/26 03:28:51;;;;;;;3.75;1.98;;;;;;;11.71;94.70;99937.09;5009038;28;20061;-65
2022/09/26 03:31:20;;;;;;;4.63;2.50;;;;;;;11.63;95.47;99938.53;5021257;28;20038;-65
2022/09/26 03:33:48;;;;;;;5.80;2.55;;;;;;;11.58;95.81;99931.94;5013083;28;20058;-64
2022/09/26 03:36:15;;;;;;;4.93;2.30;;;;;;;11.55;96.06;99930.34;5023235;28;20057;-65
2022/09/26 03:38:42;;;;;;;7.38;2.63;;;;;;;11.57;95.90;99920.53;5011799;28;20054;-65
2022/09/26 03:41:09;;;;;;;6.72;2.55;;;;;;;11.54;96.00;99925.19;5010191;28;20142;-65
2022/09/26 03:43:36;;;;;;;3.80;1.88;;;;;;;11.55;95.52;99916.31;5015836;28;20089;-66
2022/09/26 03:46:05;;;;;;;7.03;2.50;;;;;;;11.54;95.78;99914.66;5011820;28;20148;-65
2022/09/26 03:48:33;;;;;;;4.63;2.45;;;;;;;11.52;95.58;99914.75;5003749;28;20054;-65
2022/09/26 03:51:04;;;;;;;4.75;1.95;;;;;;;11.49;95.99;99908.88;4993841;28;20240;-66
2022/09/26 03:53:32;;;;;;;10.48;2.45;;;;;;;11.48;96.21;99910.66;5011444;28;20046;-65
2022/09/26 03:56:08;;;;;;;6.32;2.72;;;;;;;11.47;96.17;99913.41;5006463;28;20057;-66
2022/09/26 03:58:35;;;;;;;10.45;2.67;;;;;;;11.51;95.27;99915.72;5028481;28;20046;-65
2022/09/26 04:01:06;;;;;;;7.55;2.47;;;;;;;11.50;95.38;99908.75;5007835;28;20053;-65
2022/09/26 04:03:38;;;;;;;4.82;2.30;;;;;;;11.48;95.82;99908.03;5009510;28;20067;-65
2022/09/26 04:06:09;;;;;;;12.32;2.55;;;;;;;11.47;96.20;99905.50;5032833;28;20498;-63
2022/09/26 04:08:38;;;;;;;8.50;2.33;;;;;;;11.48;95.76;99905.38;5017284;28;20304;-65
2022/09/26 04:11:09;;;;;;;7.93;2.28;;;;;;;11.51;95.32;99907.81;5040789;28;20497;-65
2022/09/26 04:13:37;;;;;;;4.13;1.70;;;;;;;11.52;95.15;99901.56;5026042;28;20058;-66
2022/09/26 04:16:19;;;;;;;7.45;2.50;;;;;;;11.55;94.55;99895.25;5028739;28;20068;-67
2022/09/26 04:18:46;;;;;;;5.85;1.90;;;;;;;11.59;93.96;99889.63;5023189;28;20046;-66
2022/09/26 04:21:14;;;;;;;5.50;2.20;;;;;;;11.64;93.49;99892.75;5012895;28;20057;-65
2022/09/26 04:23:42;;;;;;;5.05;2.15;;;;;;;11.66;93.01;99892.63;5029531;28;20516;-65
2022/09/26 04:26:12;;;;;;;7.18;2.65;;;;;;;11.70;92.41;99894.06;5032035;28;20052;-65
2022/09/26 04:28:39;;;;;;;5.20;2.05;;;;;;;11.71;92.30;99884.38;5028753;28;20089;-65
2022/09/26 04:31:07;;;;;;;6.95;2.00;;;;;;;11.69;92.02;99896.84;5029464;28;20638;-66
2022/09/26 04:33:36;;;;;;;5.40;2.00;;;;;;;11.63;92.16;99885.81;5007641;28;20065;-66
2022/09/26 04:36:05;;;;;;;5.95;2.58;;;;;;;11.61;91.97;99882.44;5034630;28;20052;-67
2022/09/26 04:38:32;;;;;;;8.15;2.10;;;;;;;11.59;92.41;99886.16;5034504;28;20049;-66
2022/09/26 04:41:07;;;;;;;6.60;2.50;;;;;;;11.58;92.56;99887.94;5013148;28;20517;-65
2022/09/26 04:43:35;;;;;;;2.83;2.33;;;;;;;11.61;91.91;99889.50;5013403;28;20050;-66
2022/09/26 04:46:07;;;;;;;7.38;2.00;;;;;;;11.66;91.67;99887.34;5009272;28;20057;-65
2022/09/26 04:48:35;;;;;;;4.68;2.15;;;;;;;11.65;91.86;99878.59;5026594;28;20061;-67
2022/09/26 04:51:06;;;;;;;5.07;2.28;;;;;;;11.59;92.56;99881.72;5015563;28;20062;-64
2022/09/26 04:53:34;;;;;;;4.95;2.55;;;;;;;11.57;92.27;99882.78;5008334;28;20582;-66
2022/09/26 04:56:01;;;;;;;4.88;2.42;;;;;;;11.60;92.23;99883.38;5013410;28;20064;-65
2022/09/26 04:58:28;;;;;;;7.20;2.20;;;;;;;11.62;92.46;99883.28;5029456;28;20068;-65
2022/09/26 05:01:00;;;;;;;7.07;2.40;;;;;;;11.59;92.51;99886.16;5028006;28;20112;-66
2022/09/26 05:03:28;;;;;;;7.63;2.35;;;;;;;11.50;94.55;99881.56;5025284;28;20335;-65
2022/09/26 05:05:55;;;;;;;4.80;2.60;;;;;;;11.51;93.97;99881.44;5033255;28;20531;-67
2022/09/26 05:08:22;;;;;;;7.22;2.70;;;;;;;11.53;93.50;99882.19;5013950;28;20134;-65
2022/09/26 05:10:54;;;;;;;11.75;3.17;;;;;;;11.46;95.02;99880.94;4993163;28;20322;-65
2022/09/26 05:13:22;;;;;;;5.47;2.88;;;;;;;11.41;95.74;99867.28;5029946;28;20057;-65
2022/09/26 05:15:53;;;;;;;7.25;3.42;;;;;;;11.29;96.52;99876.09;5006946;28;20046;-64
2022/09/26 05:18:22;;;;;;;6.20;2.90;;;;;;;11.31;97.15;99874.19;5014813;28;20057;-65
2022/09/26 05:20:49;;;;;;;7.20;3.00;;;;;;;11.30;96.75;99870.72;5014675;28;20049;-64
2022/09/26 05:26:26;;;;;;;7.75;3.83;;;;;;;11.24;97.53;99875.59;5009869;28;20056;-64
2022/09/26 05:29:00;;;;;;;8.88;3.13;;;;;;;11.20;97.43;99874.97;5006135;28;20422;-64
2022/09/26 05:31:36;;;;;;;6.25;3.42;;;;;;;11.22;96.50;99869.59;5019041;28;20057;-65
2022/09/26 05:34:11;;;;;;;7.50;3.03;;;;;;;11.24;96.18;99870.31;5027594;28;20061;-63
2022/09/26 05:36:45;;;;;;;7.90;3.42;;;;;;;11.29;95.92;99874.28;5025486;28;20207;-65
2022/09/26 05:41:58;;;;;;;8.70;3.53;;;;;;;11.22;96.34;99877.50;5028458;28;20046;-64
2022/09/26 05:44:26;;;;;;;8.40;3.10;;;;;;;11.20;96.41;99876.75;5027499;28;20068;-63
2022/09/26 05:46:55;;;;;;;8.55;3.60;;;;;;;11.19;96.33;99875.94;5026004;28;20045;-65
2022/09/26 05:49:22;;;;;;;6.47;3.25;;;;;;;11.25;96.38;99869.34;5025355;28;20058;-65
2022/09/26 05:51:49;;;;;;;5.95;3.40;;;;;;;11.23;96.86;99873.91;5021997;28;20376;-65
2022/09/26 05:54:17;;;;;;;6.30;3.05;;;;;;;11.16;97.51;99860.34;5024460;28;20784;-65
2022/09/26 05:56:44;;;;;;;5.60;3.25;;;;;;;11.18;96.94;99865.50;5028005;28;20057;-64
2022/09/26 05:59:11;;;;;;;6.57;2.92;;;;;;;11.22;97.04;99866.97;5028843;28;20405;-65
2022/09/26 06:01:38;;;;;;;7.28;3.35;;;;;;;11.26;96.42;99868.44;5030068;28;20535;-65
2022/09/26 06:04:05;;;;;;;7.47;3.55;;;;;;;11.21;97.40;99874.00;5029974;28;20232;-64
2022/09/26 06:06:33;;;;;;;7.95;3.10;;;;;;;11.20;97.49;99863.59;5028328;28;20060;-64
2022/09/26 06:09:02;;;;;;;7.28;3.30;;;;;;;11.15;98.02;99864.75;5022419;28;20073;-65
2022/09/26 06:11:32;;;;;;;9.57;3.95;;;;;;;11.20;97.34;99866.22;5025860;28;20052;-64
2022/09/26 06:13:59;;;;;;;15.38;5.60;;;;;;;11.23;97.00;99866.00;5012139;28;20053;-65
2022/09/26 06:16:27;;;;;;;8.25;3.55;;;;;;;11.31;96.40;99866.28;5028659;28;20052;-65
2022/09/26 06:18:55;;;;;;;8.23;3.35;;;;;;;11.39;96.07;99863.91;5029360;28;20603;-64
2022/09/26 06:21:22;;;;;;;7.88;4.20;;;;;;;11.41;95.75;99862.84;5011129;28;20045;-64
2022/09/26 06:23:49;;;;;;;6.72;3.17;;;;;;;11.39;95.92;99861.25;5029480;28;20533;-64
2022/09/26 06:26:22;;;;;;;7.38;3.03;;;;;;;11.42;95.20;99858.41;5025051;28;20049;-64
2022/09/26 06:28:55;;;;;;;5.85;3.40;;;;;;;11.52;94.13;99855.91;5020059;28;20060;-64
2022/09/26 06:31:24;;;;;;;12.23;3.63;;;;;;;11.47;94.95;99852.78;5028998;28;20052;-65
2022/09/26 06:33:54;;;;;;;8.48;3.75;;;;;;;11.50;94.61;99852.56;5013131;28;20531;-64
2022/09/26 06:36:22;;;;;;;5.07;3.13;;;;;;;11.54;94.13;99860.13;5030244;28;20136;-65
2022/09/26 06:38:50;;;;;;;5.75;3.28;;;;;;;11.53;95.06;99853.19;5022840;28;20060;-65
2022/09/26 06:41:17;;;;;;;9.05;3.72;;;;;;;11.49;95.14;99843.81;5028827;28;20045;-65
2022/09/26 06:43:44;;;;;;;12.15;3.60;;;;;;;11.48;95.29;99846.56;5025184;28;20465;-65
2022/09/26 06:46:12;;;;;;;6.78;4.00;;;;;;;11.58;94.95;99843.13;5024585;28;20057;-65
2022/09/26 06:48:39;;;;;;;4.75;3.22;;;;;;;11.68;94.60;99842.44;5035693;28;20157;-65
2022/09/26 06:51:07;;;;;;;5.50;3.53;;;;;;;11.74;93.58;99850.72;5028419;28;20045;-65
2022/09/26 06:53:35;;;;;;;8.07;3.55;;;;;;;11.77;93.75;99841.75;5028589;28;20068;-65
2022/09/26 06:56:02;;;;;;;5.25;3.38;;;;;;;11.74;93.63;99836.69;5031847;28;20540;-65
2022/09/26 06:58:29;;;;;;;6.93;3.65;;;;;;;11.76;93.92;99840.91;5037174;28;20424;-65
2022/09/26 07:00:59;;;;;;;8.70;3.50;;;;;;;11.80;94.11;99833.59;5030054;28;20041;-65
2022/09/26 07:03:27;;;;;;;6.20;3.63;;;;;;;11.81;94.34;99830.00;5031189;28;20058;-64
2022/09/26 07:05:55;;;;;;;7.07;3.80;;;;;;;11.81;94.11;99828.19;5030328;28;20522;-65
2022/09/26 07:08:23;;;;;;;3.97;3.13;;;;;;;11.83;94.14;99830.75;5030829;28;20137;-65
2022/09/26 07:11:10;;;;;;;9.25;3.28;;;;;;;11.92;93.47;99827.38;5023652;28;20144;-65
2022/09/26 07:14:00;;;;;;;6.25;3.60;;;;;;;12.02;92.58;99830.16;5028412;28;20069;-64
2022/09/26 07:16:28;;;;;;;7.95;3.63;;;;;;;12.04;93.07;99829.09;5029840;28;20053;-65
2022/09/26 07:18:56;;;;;;;6.57;3.95;;;;;;;12.13;92.41;99827.53;5011059;28;20049;-65
2022/09/26 07:21:23;;;;;;;7.15;4.35;;;;;;;12.19;91.63;99832.31;5031105;28;20052;-65
2022/09/26 07:23:50;;;;;;;10.18;3.88;;;;;;;12.30;91.26;99834.97;5032050;28;20061;-65
2022/09/26 07:26:17;;;;;;;11.70;4.38;;;;;;;12.33;91.12;99826.78;5030257;28;20132;-65
2022/09/26 07:28:44;;;;;;;8.05;4.35;;;;;;;12.40;90.63;99827.16;5024128;28;20068;-64
2022/09/26 07:31:16;;;;;;;9.23;5.47;;;;;;;12.36;90.65;99818.66;5033037;28;20050;-65
2022/09/26 07:33:44;;;;;;;8.43;4.15;;;;;;;12.36;91.05;99820.44;5030945;28;20069;-65
2022/09/26 07:36:11;;;;;;;8.82;4.57;;;;;;;12.42;90.76;99812.03;5031520;28;20521;-65
2022/09/26 07:38:38;;;;;;;10.40;4.60;;;;;;;12.41;91.99;99813.00;5026640;28;20095;-65
2022/09/26 07:41:09;;;;;;;9.73;5.10;;;;;;;12.40;92.30;99814.81;5025141;28;20041;-65
2022/09/26 07:43:36;;;;;;;7.38;4.20;;;;;;;12.52;92.21;99814.78;5034958;28;20512;-65
2022/09/26 07:51:55;;;;;;;11.75;4.85;;;;;;;12.81;90.16;99815.94;5005044;28;20045;-65
2022/09/26 07:54:23;;;;;;;7.85;3.85;;;;;;;12.85;88.99;99814.72;5027463;28;20065;-65
2022/09/26 07:56:50;;;;;;;8.27;4.38;;;;;;;12.84;88.73;99813.03;5031521;28;20053;-65
2022/09/26 07:59:17;;;;;;;10.52;3.70;;;;;;;12.87;88.87;99817.22;5027153;28;20065;-65
2022/09/26 08:01:45;;;;;;;7.85;3.65;;;;;;;12.93;87.85;99820.22;5032341;28;20072;-65
2022/09/26 08:04:12;;;;;;;10.63;3.20;;;;;;;13.07;87.71;99819.09;5038370;28;20074;-63
2022/09/26 08:06:40;;;;;;;5.80;3.53;;;;;;;13.19;85.82;99822.50;5027404;28;20057;-64
2022/09/26 08:09:07;;;;;;;6.45;3.47;;;;;;;13.18;86.03;99826.13;5035193;28;20068;-64
2022/09/26 08:11:36;;;;;;;13.20;6.60;;;;;;;13.26;85.07;99828.19;5036887;28;20055;-65
2022/09/26 08:14:03;;;;;;;12.38;4.32;;;;;;;13.22;83.32;99817.00;5035795;28;20386;-65
2022/09/26 08:16:30;;;;;;;6.68;3.83;;;;;;;13.24;83.96;99822.16;5030247;28;20057;-65
2022/09/26 08:18:57;;;;;;;8.43;2.78;;;;;;;13.29;81.12;99822.66;5035235;28;20060;-64
2022/09/26 08:21:24;;;;;;;3.58;2.08;;;;;;;13.34;81.46;99818.66;5039963;28;20053;-65
2022/09/26 08:23:52;;;;;;;3.72;1.98;;;;;;;13.41;81.39;99814.50;5018132;28;20063;-65
2022/09/26 08:26:22;;;;;;;6.88;2.80;;;;;;;13.42;80.20;99812.72;5030182;28;20060;-66
2022/09/26 08:28:50;;;;;;;7.35;2.08;;;;;;;13.48;81.59;99812.19;5030262;28;20509;-65
2022/09/26 08:31:17;;;;;;;4.47;2.03;;;;;;;13.48;79.46;99808.72;5033169;28;20041;-66
2022/09/26 08:33:44;;;;;;;6.25;2.10;;;;;;;13.51;79.63;99805.81;5035585;28;20414;-65
2022/09/26 08:36:14;;;;;;;4.68;2.30;;;;;;;13.60;79.42;99811.19;5033168;28;20054;-65
2022/09/26 08:38:41;;;;;;;7.72;2.75;;;;;;;13.66;78.83;99807.16;5036697;28;20132;-65
2022/09/26 08:41:32;;;;;;;7.15;1.98;;;;;;;13.70;76.52;99802.47;5030859;28;20041;-65
2022/09/26 08:44:28;;;;;;;13.50;2.58;;;;;;;13.75;77.13;99789.69;5013709;28;20519;-66
2022/09/26 08:47:04;;;;;;;;;;;;;;;13.82;76.08;99796.94;5031774;28;20061;-66
2022/09/26 08:49:53;;;;;;;6.47;2.00;;;;;;;13.91;73.90;99801.47;5018161;28;19921;-66
2022/09/26 08:52:28;;;;;;;6.53;2.53;;;;;;;13.88;73.79;99792.94;5032581;28;20045;-66
2022/09/26 08:55:05;;;;;;;6.53;2.17;;;;;;;13.96;72.39;99784.34;5043712;28;20063;-66
2022/09/26 08:57:47;;;;;;;8.18;2.33;;;;;;;13.98;72.78;99785.88;5001743;28;20054;-65
2022/09/26 09:00:23;;;;;;;8.90;1.73;;;;;;;13.97;72.76;99770.16;4995495;28;20589;-66
2022/09/26 09:03:00;;;;;;;13.13;2.28;;;;;;;14.00;72.17;99781.28;5026915;28;20060;-65
2022/09/26 09:05:31;;;;;;;7.50;2.10;;;;;;;14.11;71.93;99781.22;5033351;28;20045;-66
2022/09/26 09:08:00;;;;;;;5.28;1.75;;;;;;;14.21;70.83;99778.59;5029284;28;20076;-66
2022/09/26 09:10:40;;;;;;;4.82;1.52;;;;;;;14.15;67.89;99772.03;5018494;28;20050;-66
2022/09/26 09:13:40;;;;;;;5.70;1.52;;;;;;;14.32;69.54;99775.00;5033621;28;20413;-65
2022/09/26 09:16:50;;;;;;;4.57;1.73;;;;;;;14.40;67.96;99767.22;5011136;28;20045;-66
2022/09/26 09:19:51;;;;;;;3.40;1.58;;;;;;;14.50;68.72;99770.78;4991361;28;20382;-66
2022/09/26 09:22:27;;;;;;;3.50;1.48;;;;;;;14.61;67.30;99767.16;5003757;28;20066;-66
2022/09/26 09:24:58;;;;;;;3.90;1.60;;;;;;;14.59;65.78;99771.75;5023490;28;20063;-66
2022/09/26 09:27:38;;;;;;;4.63;1.70;;;;;;;14.74;66.13;99751.84;5033635;28;20068;-66
2022/09/26 09:30:47;;;;;;;7.53;2.38;;;;;;;14.70;65.62;99758.38;5014350;28;20068;-65
2022/09/26 09:33:21;;;;;;;5.82;2.15;;;;;;;14.81;66.25;99760.88;5031396;28;20060;-65
2022/09/26 09:35:56;;;;;;;4.57;1.83;;;;;;;14.91;66.26;99756.47;5017698;28;20064;-64
2022/09/26 09:38:28;;;;;;;4.18;1.02;;;;;;;15.11;63.71;99751.97;5041643;28;20057;-64
2022/09/26 09:41:13;;;;;;;4.47;1.40;;;;;;;15.13;62.51;99755.34;5025632;28;20068;-64
2022/09/26 09:43:55;;;;;;;4.28;1.10;;;;;;;15.06;62.34;99748.91;5027978;28;20476;-64
2022/09/26 09:46:27;;;;;;;2.70;0.93;;;;;;;14.99;62.37;99755.72;5020396;28;20056;-65
2022/09/26 09:48:59;;;;;;;2.60;1.20;;;;;;;14.83;60.43;99756.31;5038023;28;20061;-65
2022/09/26 09:51:55;;;;;;;3.83;1.17;;;;;;;14.73;60.22;99744.88;5016024;28;20651;-64
2022/09/26 09:54:38;;;;;;;;;;;;;;;14.59;62.02;99740.81;5026688;28;20057;-64
2022/09/26 09:57:20;;;;;;;3.40;1.08;;;;;;;14.60;60.70;99739.00;5036946;28;20320;-65
2022/09/26 10:00:17;;;;;;;2.85;1.02;;;;;;;14.57;61.17;99731.31;5017052;28;20053;-65
2022/09/26 10:03:01;;;;;;;8.88;1.55;;;;;;;14.68;60.44;99724.09;5028366;28;20060;-64
2022/09/26 10:05:44;;;;;;;3.17;0.90;;;;;;;14.82;59.85;99727.31;5016889;28;20102;-64
2022/09/26 10:08:21;;;;;;;7.28;0.90;;;;;;;14.87;59.23;99717.13;5033530;28;20445;-64
2022/09/26 10:11:22;;;;;;;3.95;1.30;;;;;;;15.01;58.78;99716.69;5022926;28;20103;-64
2022/09/26 10:13:54;;;;;;;2.70;1.00;;;;;;;15.10;58.29;99715.84;5021435;28;20474;-64
2022/09/26 10:16:22;;;;;;;2.75;1.10;;;;;;;15.19;58.24;99722.94;5033017;28;20086;-64
2022/09/26 10:19:00;;;;;;;4.45;1.38;;;;;;;15.40;58.36;99720.13;5031145;28;20053;-65
2022/09/26 10:21:32;;;;;;;3.25;1.15;;;;;;;15.62;57.48;99710.13;5013993;28;20233;-64
2022/09/26 10:24:00;;;;;;;9.80;1.52;;;;;;;15.66;57.42;99699.13;5035594;28;20049;-64
2022/09/26 10:26:35;;;;;;;3.47;0.73;;;;;;;15.75;57.58;99696.56;5025407;28;20042;-64
2022/09/26 10:29:20;;;;;;;3.70;0.90;;;;;;;15.77;57.27;99687.50;5017587;28;20060;-65
2022/09/26 10:31:54;;;;;;;3.85;1.08;;;;;;;15.72;56.45;99695.06;5034111;28;20048;-65
2022/09/26 10:34:29;;;;;;;5.47;1.25;;;;;;;15.74;56.67;99685.13;5017568;28;20053;-65
2022/09/26 10:37:17;;;;;;;5.22;1.10;;;;;;;15.70;57.00;99686.41;5034496;28;20136;-66
2022/09/26 10:42:37;;;;;;;7.90;1.13;;;;;;;15.72;55.06;99687.09;5015632;28;20053;-66
2022/09/26 10:45:12;;;;;;;4.30;1.00;;;;;;;15.68;55.78;99683.06;5015744;28;20525;-66
2022/09/26 10:47:39;;;;;;;5.33;1.13;;;;;;;15.56;55.03;99671.75;5029022;28;20053;-66
2022/09/26 10:50:11;;;;;;;1.52;0.90;;;;;;;15.62;56.18;99686.25;4992564;28;20575;-65
2022/09/26 10:52:48;;;;;;;2.92;1.30;;;;;;;15.59;55.97;99679.44;4999235;28;20064;-66
2022/09/26 10:55:18;;;;;;;3.92;1.00;;;;;;;15.53;56.37;99672.03;5028396;28;20605;-66
2022/09/26 10:57:49;;;;;;;4.68;1.30;;;;;;;15.59;56.79;99666.16;5003422;28;20053;-64
2022/09/26 11:00:18;;;;;;;3.53;1.30;;;;;;;15.60;56.85;99675.78;5021999;28;20056;-65
2022/09/26 11:02:50;;;;;;;2.65;1.00;;;;;;;15.54;56.18;99675.56;5022408;28;20045;-64
2022/09/26 11:08:05;;;;;;;2.95;1.15;;;;;;;15.55;57.18;99658.66;5014483;28;20540;-65
2022/09/26 11:10:35;;;;;;;3.22;1.02;;;;;;;15.53;57.20;99663.25;5017101;28;20176;-64
2022/09/26 11:13:17;;;;;;;4.40;1.17;;;;;;;15.52;57.35;99669.53;5014814;28;20632;-64
2022/09/26 11:16:01;;;;;;;3.58;1.20;;;;;;;15.42;56.56;99657.16;5013708;28;20535;-64
2022/09/26 11:18:43;;;;;;;5.80;0.95;;;;;;;15.36;56.61;99652.44;5010685;28;20544;-66
2022/09/26 11:21:18;;;;;;;2.45;0.80;;;;;;;15.34;57.26;99651.72;5002763;28;20052;-66
2022/09/26 11:24:02;;;;;;;2.88;1.00;;;;;;;15.28;57.24;99654.97;5004815;28;20050;-66
2022/09/26 11:27:00;;;;;;;2.13;1.25;;;;;;;15.31;57.28;99651.19;5020565;28;20053;-66
2022/09/26 11:29:40;;;;;;;6.82;1.67;;;;;;;15.40;57.67;99645.88;5007696;28;20053;-65
2022/09/26 11:32:13;;;;;;;1.90;1.23;;;;;;;15.42;57.10;99645.72;5028636;28;20137;-65
2022/09/26 11:34:40;;;;;;;4.35;1.15;;;;;;;15.45;57.85;99643.59;5016033;28;20045;-65
2022/09/26 11:37:35;;;;;;;5.40;1.10;;;;;;;15.49;57.80;99636.19;5011652;28;20053;-65
2022/09/26 11:40:44;;;;;;;4.88;1.17;;;;;;;15.52;57.33;99629.75;5003832;28;20062;-65
2022/09/26 11:43:24;;;;;;;3.88;0.95;;;;;;;15.59;56.97;99628.19;4985975;28;20046;-65
2022/09/26 11:46:04;;;;;;;7.45;1.70;;;;;;;15.82;56.19;99626.00;4998722;28;20057;-65
2022/09/26 11:49:11;;;;;;;5.00;0.82;;;;;;;15.93;54.18;99625.78;5029189;28;20084;-66
2022/09/26 11:52:28;;;;;;;5.80;1.40;;;;;;;16.11;53.74;99628.47;5021272;28;20050;-65
2022/09/26 11:55:19;;;;;;;2.60;1.00;;;;;;;16.38;53.15;99619.63;5026304;28;20083;-65
2022/09/26 11:58:18;;;;;;;2.92;1.20;;;;;;;16.37;53.31;99615.28;5024068;28;20513;-65
2022/09/26 12:01:15;;;;;;;9.07;1.38;;;;;;;16.32;52.50;99620.22;4982866;28;20049;-65
2022/09/26 12:03:57;;;;;;;3.88;1.77;;;;;;;16.31;52.78;99613.25;5017921;28;20049;-65
2022/09/26 12:07:00;;;;;;;4.35;1.20;;;;;;;16.25;52.35;99608.53;5024189;28;20176;-65
2022/09/26 12:09:59;;;;;;;8.77;1.10;;;;;;;16.10;53.06;99614.38;4997004;28;20655;-65
2022/09/26 12:12:40;;;;;;;7.18;0.93;;;;;;;15.96;53.52;99604.28;5001106;28;20057;-66
2022/09/26 12:15:19;;;;;;;3.45;1.20;;;;;;;15.91;54.60;99607.38;4994757;28;20064;-66
2022/09/26 12:18:12;;;;;;;4.00;1.05;;;;;;;16.00;54.75;99597.69;5009700;28;20056;-66
2022/09/26 12:21:03;;;;;;;3.53;1.17;;;;;;;16.03;54.64;99591.22;5014415;28;20144;-65
2022/09/26 12:23:52;;;;;;;4.88;1.67;;;;;;;16.12;54.99;99583.22;4997431;28;20164;-65